Friendship Heights, District of Columbia
Current Conditions -  °F | °C
As of 1:45 PM on Wednesday 26 Nov 2014 (Local Time) from KCGS Reporting Station
Overcast Overcast  
Wind Chill: 30°   Ceiling: 1000
Heat Index: 36°   Visibility: 10mi
Dew Point: 36°   Wind: 7mph
Humidity: 100%   Direction: 360°N
Pressure: 29.92"   Gusts: NA
Location:  38.9679°N, 77.0592°W
Report Text: KCGS 261845Z AUTO 36006KT 10SM OVC010 02/02 A2992 RMK AO1
Loading
Personal Weather Stations






























Interactive Weather Map New forecast layout! Learn more

10-Day Weather Forecast

Advertisements
Track Severe Weather on mobile